createdAt,value
2023-06-11T00:00:55.145Z,22.36
2023-06-11T00:03:27.322Z,22.32
2023-06-11T00:05:55.814Z,22.33
2023-06-11T00:08:24.549Z,22.31
2023-06-11T00:10:52.932Z,22.25
2023-06-11T00:13:25.688Z,22.21
2023-06-11T00:15:55.165Z,22.10
2023-06-11T00:18:24.530Z,22.10
2023-06-11T00:20:54.837Z,22.03
2023-06-11T00:23:24.062Z,22.04
2023-06-11T00:25:53.556Z,22.05
2023-06-11T00:28:23.019Z,22.07
2023-06-11T00:30:52.159Z,22.02
2023-06-11T00:33:22.146Z,22.01
2023-06-11T00:35:50.798Z,21.97
2023-06-11T00:38:21.503Z,21.94
2023-06-11T00:40:52.225Z,21.89
2023-06-11T00:43:24.710Z,21.82
2023-06-11T00:45:58.109Z,21.69
2023-06-11T00:48:27.788Z,21.63
2023-06-11T00:50:56.756Z,21.52
2023-06-11T00:53:26.360Z,21.44
2023-06-11T00:55:54.540Z,21.40
2023-06-11T00:58:23.522Z,21.36
2023-06-11T01:00:59.036Z,21.34
2023-06-11T01:03:30.796Z,21.33
2023-06-11T01:06:07.179Z,21.28
2023-06-11T01:08:43.368Z,21.27
2023-06-11T01:11:22.912Z,21.24
2023-06-11T01:13:55.165Z,21.18
2023-06-11T01:16:34.441Z,21.16
2023-06-11T01:19:30.750Z,21.15
2023-06-11T01:22:02.611Z,21.10
2023-06-11T01:24:46.665Z,21.06
2023-06-11T01:27:24.733Z,21.05
2023-06-11T01:29:58.359Z,20.97
2023-06-11T01:32:29.804Z,20.98
2023-06-11T01:35:03.072Z,20.89
2023-06-11T01:37:40.105Z,20.81
2023-06-11T01:40:10.598Z,20.79
2023-06-11T01:42:47.460Z,20.77
2023-06-11T01:45:18.242Z,20.79
2023-06-11T01:47:49.826Z,20.76
2023-06-11T01:50:20.104Z,20.73
2023-06-11T01:52:52.652Z,20.66
2023-06-11T01:55:21.253Z,20.67
2023-06-11T01:57:50.407Z,20.72
2023-06-11T02:00:22.240Z,20.65
2023-06-11T02:02:51.440Z,20.60
2023-06-11T02:05:20.417Z,20.56
2023-06-11T02:07:50.445Z,20.50
2023-06-11T02:10:23.545Z,20.45
2023-06-11T02:12:51.844Z,20.42
2023-06-11T02:15:22.119Z,20.42
2023-06-11T02:17:54.838Z,20.40
2023-06-11T02:20:26.950Z,20.38
2023-06-11T02:22:56.789Z,20.36
2023-06-11T02:25:25.268Z,20.33
2023-06-11T02:27:56.884Z,20.32
2023-06-11T02:30:28.414Z,20.34
2023-06-11T02:32:56.981Z,20.31
2023-06-11T02:35:26.584Z,20.29
2023-06-11T02:37:56.539Z,20.21
2023-06-11T02:40:28.079Z,20.17
2023-06-11T02:42:58.482Z,20.19
2023-06-11T02:45:30.676Z,20.18
2023-06-11T02:47:58.919Z,20.18
2023-06-11T02:50:30.374Z,20.15
2023-06-11T02:52:58.964Z,20.11
2023-06-11T02:55:27.710Z,20.10
2023-06-11T02:57:56.962Z,20.07
2023-06-11T03:00:26.407Z,20.06
2023-06-11T03:02:56.902Z,20.07
2023-06-11T03:05:33.574Z,20.00
2023-06-11T03:08:02.062Z,19.99
2023-06-11T03:10:32.618Z,19.96
2023-06-11T03:13:01.093Z,19.95
2023-06-11T03:15:29.657Z,19.93
2023-06-11T03:17:59.631Z,19.91
2023-06-11T03:20:30.671Z,19.87
2023-06-11T03:23:00.762Z,19.85
2023-06-11T03:25:32.139Z,19.86
2023-06-11T03:28:03.556Z,19.86
2023-06-11T03:30:36.756Z,19.86
2023-06-11T03:33:08.576Z,19.91
2023-06-11T03:35:38.445Z,19.90
2023-06-11T03:38:16.450Z,19.92
2023-06-11T03:40:45.182Z,19.93
2023-06-11T03:43:18.974Z,19.98
2023-06-11T03:45:52.208Z,19.99
2023-06-11T03:48:25.685Z,20.04
2023-06-11T03:50:54.872Z,20.07
2023-06-11T03:53:23.069Z,20.10
2023-06-11T03:55:53.980Z,20.16
2023-06-11T03:58:23.797Z,20.20
2023-06-11T04:00:53.375Z,20.26
2023-06-11T04:03:24.639Z,20.30
2023-06-11T04:05:56.164Z,20.27
2023-06-11T04:08:25.705Z,20.28
2023-06-11T04:10:57.761Z,20.33
2023-06-11T04:13:26.972Z,20.39
2023-06-11T04:15:56.159Z,20.44
2023-06-11T04:18:26.366Z,20.43
2023-06-11T04:20:56.767Z,20.47
2023-06-11T04:23:25.596Z,20.48
2023-06-11T04:25:58.019Z,20.48
2023-06-11T04:28:31.141Z,20.41
2023-06-11T04:31:03.014Z,20.43
2023-06-11T04:33:38.657Z,20.49
2023-06-11T04:36:10.641Z,20.53
2023-06-11T04:38:45.772Z,20.53
2023-06-11T04:41:16.610Z,20.59
2023-06-11T04:43:49.440Z,20.61
2023-06-11T04:46:18.460Z,20.66
2023-06-11T04:48:51.548Z,20.67
2023-06-11T04:51:21.995Z,20.72
2023-06-11T04:53:59.242Z,20.76
2023-06-11T04:56:28.071Z,20.78
2023-06-11T04:58:57.564Z,20.82
2023-06-11T05:01:33.320Z,20.83
2023-06-11T05:04:05.142Z,20.80
2023-06-11T05:06:35.092Z,20.81
2023-06-11T05:09:06.340Z,20.86
2023-06-11T05:11:37.702Z,20.88
2023-06-11T05:14:05.953Z,20.92
2023-06-11T05:16:46.655Z,20.95
2023-06-11T05:19:20.823Z,20.97
2023-06-11T05:21:53.469Z,21.01
2023-06-11T05:24:22.193Z,21.04
2023-06-11T05:26:58.875Z,21.08
2023-06-11T05:29:37.202Z,21.14
2023-06-11T05:32:09.687Z,21.17
2023-06-11T05:34:40.774Z,21.21
2023-06-11T05:37:12.637Z,21.24
2023-06-11T05:39:43.994Z,21.29
2023-06-11T05:42:14.446Z,21.34
2023-06-11T05:44:45.275Z,21.38
2023-06-11T05:47:17.457Z,21.43
2023-06-11T05:49:48.993Z,21.47
2023-06-11T05:52:18.407Z,21.54
2023-06-11T05:54:47.705Z,21.59
2023-06-11T05:57:23.928Z,21.67
2023-06-11T05:59:53.700Z,21.73
2023-06-11T06:02:22.175Z,21.81
2023-06-11T06:04:53.767Z,21.88
2023-06-11T06:07:24.855Z,21.91
2023-06-11T06:09:58.216Z,21.98
2023-06-11T06:12:31.009Z,22.03
2023-06-11T06:15:03.847Z,22.10
2023-06-11T06:17:37.446Z,22.14
2023-06-11T06:20:10.442Z,22.20
2023-06-11T06:22:44.548Z,22.25
2023-06-11T06:25:19.953Z,22.31
2023-06-11T06:27:48.436Z,22.37
2023-06-11T06:30:18.222Z,22.44
2023-06-11T06:32:47.054Z,22.50
2023-06-11T06:35:17.463Z,22.58
2023-06-11T06:37:49.736Z,22.64
2023-06-11T06:40:17.785Z,22.68
2023-06-11T06:42:46.537Z,22.75
2023-06-11T06:45:24.878Z,22.80
2023-06-11T06:48:01.613Z,22.87
2023-06-11T06:50:38.430Z,22.91
2023-06-11T06:53:10.247Z,22.94
2023-06-11T06:55:45.074Z,23.05
2023-06-11T06:58:13.855Z,23.10
2023-06-11T07:00:46.309Z,23.17
2023-06-11T07:03:16.253Z,23.23
2023-06-11T07:05:49.002Z,23.30
2023-06-11T07:08:23.492Z,23.35
2023-06-11T07:10:56.017Z,23.43
2023-06-11T07:13:36.807Z,23.50
2023-06-11T07:16:07.273Z,23.58
2023-06-11T07:18:37.280Z,23.68
2023-06-11T07:21:07.352Z,23.74
2023-06-11T07:23:37.022Z,23.79
2023-06-11T07:26:07.593Z,23.82
2023-06-11T07:28:37.148Z,23.90
2023-06-11T07:31:08.463Z,23.97
2023-06-11T07:33:42.798Z,24.06
2023-06-11T07:36:13.078Z,24.13
2023-06-11T07:38:41.616Z,24.19
2023-06-11T07:41:09.653Z,24.26
2023-06-11T07:43:38.269Z,24.34
2023-06-11T07:46:08.791Z,24.42
2023-06-11T07:48:42.841Z,24.52
2023-06-11T07:51:19.975Z,24.55
2023-06-11T07:53:54.160Z,24.58
2023-06-11T07:56:25.732Z,24.68
2023-06-11T07:58:58.668Z,24.71
2023-06-11T08:01:27.537Z,24.77
2023-06-11T08:03:56.117Z,24.85
2023-06-11T08:06:26.067Z,24.96
2023-06-11T08:08:54.832Z,25.00
2023-06-11T08:11:24.397Z,25.06
2023-06-11T08:13:53.746Z,25.18
2023-06-11T08:16:24.731Z,25.18
2023-06-11T08:18:53.083Z,25.24
2023-06-11T08:21:21.799Z,25.24
2023-06-11T08:23:53.917Z,25.34
2023-06-11T08:26:23.137Z,25.41
2023-06-11T08:28:53.517Z,25.44
2023-06-11T08:31:27.029Z,25.48
2023-06-11T08:33:55.195Z,25.58
2023-06-11T08:36:23.743Z,25.65
2023-06-11T08:38:53.371Z,25.67
2023-06-11T08:41:23.408Z,25.73
2023-06-11T08:43:51.568Z,25.81
2023-06-11T08:46:25.624Z,25.88
2023-06-11T08:49:01.040Z,25.94
2023-06-11T08:51:37.300Z,26.00
2023-06-11T08:54:07.900Z,26.07
2023-06-11T08:56:37.011Z,26.13
2023-06-11T08:59:06.284Z,26.20
2023-06-11T09:01:34.726Z,26.28
2023-06-11T09:04:03.277Z,26.36
2023-06-11T09:06:31.815Z,26.43
2023-06-11T09:09:00.745Z,26.49
2023-06-11T09:11:36.282Z,26.54
2023-06-11T09:14:08.456Z,26.60
2023-06-11T09:16:44.620Z,26.68
2023-06-11T09:19:14.748Z,26.77
2023-06-11T09:21:52.214Z,26.85
2023-06-11T09:24:24.384Z,26.85
2023-06-11T09:26:56.792Z,26.88
2023-06-11T09:29:29.137Z,26.93
2023-06-11T09:32:09.937Z,26.99
2023-06-11T09:34:46.286Z,27.09
2023-06-11T09:37:17.704Z,27.09
2023-06-11T09:39:49.168Z,27.13
2023-06-11T09:42:27.903Z,27.18
2023-06-11T09:45:00.193Z,27.29
2023-06-11T09:47:33.254Z,27.36
2023-06-11T09:50:03.287Z,27.43
2023-06-11T09:52:39.233Z,27.51
2023-06-11T09:55:10.682Z,27.60
2023-06-11T09:57:44.746Z,27.65
2023-06-11T10:00:15.015Z,27.70
2023-06-11T10:02:46.188Z,27.83
2023-06-11T10:05:15.066Z,27.93
2023-06-11T10:07:46.734Z,28.03
2023-06-11T10:10:19.990Z,28.19
2023-06-11T10:12:54.919Z,28.33
2023-06-11T10:15:26.752Z,28.42
2023-06-11T10:17:59.907Z,28.45
2023-06-11T10:20:30.087Z,28.40
2023-06-11T10:23:07.899Z,28.52
2023-06-11T10:25:41.970Z,28.56
2023-06-11T10:28:16.857Z,28.58
2023-06-11T10:30:54.498Z,28.67
2023-06-11T10:33:22.775Z,28.72
2023-06-11T10:35:53.257Z,28.69
2023-06-11T10:38:31.614Z,28.76
2023-06-11T10:41:05.370Z,28.83
2023-06-11T10:43:38.801Z,28.79
2023-06-11T10:46:13.138Z,28.83
2023-06-11T10:48:52.238Z,28.90
2023-06-11T10:51:20.942Z,28.99
2023-06-11T10:53:58.177Z,29.03
2023-06-11T10:56:27.500Z,28.96
2023-06-11T10:58:57.644Z,28.89
2023-06-11T11:01:33.068Z,28.95
2023-06-11T11:04:03.870Z,29.04
2023-06-11T11:06:37.753Z,29.12
2023-06-11T11:09:05.899Z,29.25
2023-06-11T11:11:35.050Z,29.39
2023-06-11T11:14:05.481Z,29.49
2023-06-11T11:16:37.350Z,29.39
2023-06-11T11:19:07.811Z,29.26
2023-06-11T11:21:40.744Z,29.04
2023-06-11T11:24:11.230Z,29.04
2023-06-11T11:26:43.902Z,29.16
2023-06-11T11:29:18.028Z,29.32
2023-06-11T11:31:47.905Z,29.37
2023-06-11T11:34:18.992Z,29.44
2023-06-11T11:36:47.750Z,29.56
2023-06-11T11:39:17.420Z,29.72
2023-06-11T11:41:49.544Z,29.91
2023-06-11T11:44:22.051Z,29.97
2023-06-11T11:46:57.214Z,29.92
2023-06-11T11:49:36.196Z,29.99
2023-06-11T11:52:08.681Z,29.99
2023-06-11T11:54:36.750Z,30.02
2023-06-11T11:57:05.355Z,29.90
2023-06-11T11:59:40.241Z,29.75
2023-06-11T12:02:09.697Z,29.75
2023-06-11T12:04:39.219Z,29.94
2023-06-11T12:07:12.679Z,30.19
2023-06-11T12:09:41.548Z,30.36
2023-06-11T12:12:12.450Z,30.55
2023-06-11T12:14:42.318Z,30.67
2023-06-11T12:17:14.980Z,30.83
2023-06-11T12:19:46.090Z,31.03
2023-06-11T12:22:14.698Z,31.11
2023-06-11T12:24:44.434Z,31.01
2023-06-11T12:27:13.221Z,30.87
2023-06-11T12:29:54.209Z,30.59
2023-06-11T12:32:26.443Z,30.54
2023-06-11T12:34:58.175Z,30.69
2023-06-11T12:37:27.421Z,30.87
2023-06-11T12:39:58.647Z,31.07
2023-06-11T12:42:28.607Z,31.19
2023-06-11T12:44:59.566Z,31.36
2023-06-11T12:47:29.442Z,31.48
2023-06-11T12:49:58.914Z,31.67
2023-06-11T12:52:30.218Z,31.96
2023-06-11T12:54:58.444Z,32.19
2023-06-11T12:57:29.253Z,32.37
2023-06-11T12:59:58.985Z,32.47
2023-06-11T13:02:27.076Z,32.57
2023-06-11T13:04:55.437Z,32.65
2023-06-11T13:07:25.240Z,32.60
2023-06-11T13:09:56.645Z,32.64
2023-06-11T13:12:26.015Z,32.82
2023-06-11T13:14:55.554Z,32.90
2023-06-11T13:17:26.205Z,33.05
2023-06-11T13:19:55.545Z,33.10
2023-06-11T13:22:27.305Z,33.01
2023-06-11T13:24:56.251Z,33.10
2023-06-11T13:27:25.165Z,33.23
2023-06-11T13:29:57.553Z,33.21
2023-06-11T13:32:27.937Z,33.21
2023-06-11T13:34:58.372Z,33.21
2023-06-11T13:37:27.176Z,33.02
2023-06-11T13:39:58.697Z,33.16
2023-06-11T13:42:28.437Z,33.43
2023-06-11T13:45:00.695Z,33.41
2023-06-11T13:47:30.472Z,33.62
2023-06-11T13:49:58.771Z,33.71
2023-06-11T13:52:29.739Z,33.84
2023-06-11T13:54:58.054Z,33.78
2023-06-11T13:57:29.025Z,33.94
2023-06-11T14:00:00.724Z,34.14
2023-06-11T14:02:33.420Z,33.94
2023-06-11T14:05:03.727Z,33.93
2023-06-11T14:07:34.439Z,33.83
2023-06-11T14:10:06.127Z,33.93
2023-06-11T14:12:34.932Z,34.35
2023-06-11T14:15:07.642Z,34.74
2023-06-11T14:17:41.214Z,34.98
2023-06-11T14:20:12.174Z,34.84
2023-06-11T14:22:44.956Z,35.02
2023-06-11T14:25:13.880Z,35.27
2023-06-11T14:27:45.093Z,35.60
2023-06-11T14:30:15.182Z,35.50
2023-06-11T14:32:45.701Z,35.49
2023-06-11T14:35:17.243Z,35.74
2023-06-11T14:37:50.075Z,35.84
2023-06-11T14:40:18.347Z,36.18
2023-06-11T14:42:48.356Z,36.36
2023-06-11T14:45:18.079Z,36.64
2023-06-11T14:47:47.939Z,37.02
2023-06-11T14:50:18.049Z,37.21
2023-06-11T14:52:48.144Z,37.58
2023-06-11T14:55:16.870Z,37.91
2023-06-11T14:57:45.368Z,38.03
2023-06-11T15:00:18.251Z,38.78
2023-06-11T15:02:48.680Z,40.64
2023-06-11T15:05:17.202Z,42.51
2023-06-11T15:07:48.946Z,43.53
2023-06-11T15:10:19.830Z,45.40
2023-06-11T15:12:49.418Z,47.11
2023-06-11T15:15:18.414Z,49.09
2023-06-11T15:17:49.435Z,51.07
2023-06-11T15:20:18.049Z,52.59
2023-06-11T15:22:48.609Z,53.30
2023-06-11T15:25:17.043Z,53.10
2023-06-11T15:27:45.040Z,54.41
2023-06-11T15:30:15.075Z,55.38
2023-06-11T15:32:43.463Z,55.80
2023-06-11T15:35:13.592Z,56.54
2023-06-11T15:37:42.110Z,57.17
2023-06-11T15:40:11.508Z,57.75
2023-06-11T15:42:40.238Z,58.73
2023-06-11T15:45:13.263Z,59.01
2023-06-11T15:47:43.858Z,59.25
2023-06-11T15:50:14.849Z,59.09
2023-06-11T15:52:48.547Z,58.33
2023-06-11T15:55:17.385Z,59.12
2023-06-11T15:57:49.076Z,58.68
2023-06-11T16:00:22.244Z,59.49
2023-06-11T16:02:52.597Z,60.01
2023-06-11T16:05:23.047Z,60.59
2023-06-11T16:07:51.662Z,60.81
2023-06-11T16:10:19.880Z,59.66
2023-06-11T16:12:48.644Z,60.49
2023-06-11T16:15:19.544Z,58.75
2023-06-11T16:17:48.154Z,59.42
2023-06-11T16:20:19.814Z,58.42
2023-06-11T16:22:54.877Z,59.21
2023-06-11T16:25:24.127Z,58.13
2023-06-11T16:27:55.501Z,58.61
2023-06-11T16:30:24.933Z,59.11
2023-06-11T16:32:54.822Z,59.11
2023-06-11T16:35:25.683Z,59.04
2023-06-11T16:37:59.510Z,59.64
2023-06-11T16:40:27.824Z,58.48
2023-06-11T16:42:59.785Z,58.61
2023-06-11T16:45:30.235Z,58.94
2023-06-11T16:48:05.682Z,58.88
2023-06-11T16:50:33.627Z,59.02
2023-06-11T16:53:03.612Z,59.35
2023-06-11T16:55:41.584Z,58.97
2023-06-11T16:58:09.993Z,58.20
2023-06-11T17:00:40.487Z,57.55
2023-06-11T17:03:12.482Z,55.73
2023-06-11T17:05:40.822Z,55.16
2023-06-11T17:08:12.556Z,54.94
2023-06-11T17:10:40.972Z,53.58
2023-06-11T17:13:09.447Z,51.84
2023-06-11T17:15:37.943Z,51.27
2023-06-11T17:18:13.268Z,51.67
2023-06-11T17:20:46.556Z,52.91
2023-06-11T17:23:18.324Z,52.37
2023-06-11T17:25:49.600Z,51.45
2023-06-11T17:28:20.258Z,50.34
2023-06-11T17:30:48.741Z,48.31
2023-06-11T17:33:17.341Z,46.96
2023-06-11T17:35:45.655Z,45.53
2023-06-11T17:38:14.998Z,44.53
2023-06-11T17:40:46.574Z,43.57
2023-06-11T17:43:21.105Z,42.75
2023-06-11T17:45:50.684Z,42.21
2023-06-11T17:48:21.632Z,42.10
2023-06-11T17:50:50.636Z,41.40
2023-06-11T17:53:19.547Z,41.03
2023-06-11T17:55:51.030Z,40.33
2023-06-11T17:58:19.842Z,39.14
2023-06-11T18:00:48.239Z,38.28
2023-06-11T18:03:16.355Z,37.61
2023-06-11T18:05:45.890Z,36.96
2023-06-11T18:08:14.225Z,36.39
2023-06-11T18:10:42.262Z,35.81
2023-06-11T18:13:11.695Z,35.14
2023-06-11T18:15:42.066Z,34.79
2023-06-11T18:18:16.243Z,34.39
2023-06-11T18:20:44.834Z,33.85
2023-06-11T18:23:14.041Z,33.54
2023-06-11T18:25:42.248Z,33.13
2023-06-11T18:28:14.424Z,32.82
2023-06-11T18:30:42.653Z,32.52
2023-06-11T18:33:14.424Z,32.26
2023-06-11T18:35:48.136Z,31.95
2023-06-11T18:38:17.035Z,31.77
2023-06-11T18:40:45.105Z,31.60
2023-06-11T18:43:16.835Z,31.55
2023-06-11T18:45:47.282Z,31.45
2023-06-11T18:48:17.398Z,31.46
2023-06-11T18:50:45.965Z,31.40
2023-06-11T18:53:15.511Z,31.33
2023-06-11T18:55:43.532Z,31.23
2023-06-11T18:58:12.038Z,31.09
2023-06-11T19:00:41.937Z,30.95
2023-06-11T19:03:11.679Z,30.76
2023-06-11T19:05:43.436Z,30.53
2023-06-11T19:08:12.883Z,30.35
2023-06-11T19:10:43.636Z,30.15
2023-06-11T19:13:12.360Z,29.95
2023-06-11T19:15:42.785Z,29.78
2023-06-11T19:18:11.980Z,29.54
2023-06-11T19:20:45.944Z,29.35
2023-06-11T19:23:20.765Z,29.14
2023-06-11T19:25:52.696Z,28.96
2023-06-11T19:28:23.443Z,28.75
2023-06-11T19:30:54.473Z,28.55
2023-06-11T19:33:22.564Z,28.41
2023-06-11T19:35:52.666Z,28.26
2023-06-11T19:38:26.261Z,28.06
2023-06-11T19:40:55.924Z,27.94
2023-06-11T19:43:25.727Z,27.75
2023-06-11T19:45:58.429Z,27.60
2023-06-11T19:48:26.638Z,27.45
2023-06-11T19:50:56.446Z,27.30
2023-06-11T19:53:24.964Z,27.17
2023-06-11T19:55:55.500Z,27.07
2023-06-11T19:58:24.329Z,26.94
2023-06-11T20:00:52.788Z,26.88
2023-06-11T20:03:23.114Z,26.77
2023-06-11T20:05:51.634Z,26.68
2023-06-11T20:08:21.285Z,26.61
2023-06-11T20:10:49.673Z,26.52
2023-06-11T20:13:17.580Z,26.38
2023-06-11T20:15:48.414Z,26.28
2023-06-11T20:18:19.831Z,26.17
2023-06-11T20:20:51.779Z,26.13
2023-06-11T20:23:20.756Z,26.12
2023-06-11T20:25:50.782Z,26.10
2023-06-11T20:28:18.947Z,26.10
2023-06-11T20:30:49.266Z,26.03
2023-06-11T20:33:20.456Z,25.98
2023-06-11T20:35:51.907Z,25.88
2023-06-11T20:38:19.971Z,25.76
2023-06-11T20:40:51.843Z,25.65
2023-06-11T20:43:20.056Z,25.50
2023-06-11T20:45:57.531Z,25.35
2023-06-11T20:48:29.522Z,25.24
2023-06-11T20:50:59.629Z,25.09
2023-06-11T20:53:33.004Z,25.04
2023-06-11T20:56:03.906Z,25.00
2023-06-11T20:58:34.115Z,24.95
2023-06-11T21:01:04.822Z,24.87
2023-06-11T21:03:34.209Z,24.82
2023-06-11T21:06:03.557Z,24.77
2023-06-11T21:08:31.866Z,24.74
2023-06-11T21:11:00.332Z,24.72
2023-06-11T21:13:28.301Z,24.65
2023-06-11T21:15:58.051Z,24.57
2023-06-11T21:18:28.658Z,24.51
2023-06-11T21:20:56.688Z,24.46
2023-06-11T21:23:25.937Z,24.39
2023-06-11T21:25:56.765Z,24.31
2023-06-11T21:28:25.272Z,24.23
2023-06-11T21:30:55.980Z,24.14
2023-06-11T21:33:26.200Z,24.11
2023-06-11T21:35:54.081Z,24.05
2023-06-11T21:38:22.292Z,23.95
2023-06-11T21:40:51.562Z,23.86
2023-06-11T21:43:23.094Z,23.84
2023-06-11T21:45:51.766Z,23.78
2023-06-11T21:48:21.950Z,23.72
2023-06-11T21:50:51.280Z,23.66
2023-06-11T21:53:20.327Z,23.62
2023-06-11T21:55:52.742Z,23.60
2023-06-11T21:58:20.999Z,23.55
2023-06-11T22:00:49.076Z,23.54
2023-06-11T22:03:18.443Z,23.52
2023-06-11T22:05:47.877Z,23.48
2023-06-11T22:08:16.482Z,23.44
2023-06-11T22:10:48.347Z,23.39
2023-06-11T22:13:19.434Z,23.39
2023-06-11T22:15:47.680Z,23.35
2023-06-11T22:18:19.824Z,23.30
2023-06-11T22:20:50.579Z,23.27
2023-06-11T22:23:19.442Z,23.25
2023-06-11T22:25:51.071Z,23.23
2023-06-11T22:28:23.475Z,23.20
2023-06-11T22:30:56.964Z,23.16
2023-06-11T22:33:26.066Z,23.12
2023-06-11T22:35:57.141Z,23.08
2023-06-11T22:38:26.658Z,23.08
2023-06-11T22:40:57.449Z,22.98
2023-06-11T22:43:31.622Z,22.99
2023-06-11T22:46:00.085Z,22.90
2023-06-11T22:48:28.434Z,22.83
2023-06-11T22:50:57.835Z,22.79
2023-06-11T22:53:28.873Z,22.73
2023-06-11T22:55:58.208Z,22.67
2023-06-11T22:58:26.485Z,22.63
2023-06-11T23:00:58.771Z,22.55
2023-06-11T23:03:27.171Z,22.53
2023-06-11T23:05:56.988Z,22.49
2023-06-11T23:08:27.564Z,22.47
2023-06-11T23:10:56.038Z,22.35
2023-06-11T23:13:24.978Z,22.31
2023-06-11T23:15:53.112Z,22.18
2023-06-11T23:18:25.315Z,22.16
2023-06-11T23:20:55.954Z,22.16
2023-06-11T23:23:24.998Z,22.14
2023-06-11T23:25:57.343Z,22.13
2023-06-11T23:28:26.680Z,22.04
2023-06-11T23:30:58.322Z,22.01
2023-06-11T23:33:34.636Z,21.93
2023-06-11T23:36:09.508Z,21.86
2023-06-11T23:38:40.499Z,21.83
2023-06-11T23:41:12.469Z,21.83
2023-06-11T23:43:42.966Z,21.81
2023-06-11T23:46:12.610Z,21.83
2023-06-11T23:48:44.188Z,21.86
2023-06-11T23:51:12.574Z,21.90
2023-06-11T23:53:41.930Z,21.85
2023-06-11T23:56:10.967Z,21.87
2023-06-11T23:58:39.989Z,21.95
